Terminal Aerodrome Forecast
Issued by NWS

Home | Current Version | Previous Version | Graphics & Text | Print | Product List | Glossary On
Versions: 1 2 3 4 5 6 7 8 9 10 11 12 13 14 15 16 17 18 19 20 21 22 23 24 25 26 27 28 29 30 31 32 33
000
FTUS45 KGGW 041859 AAA
TAFGDV
TAF AMD
KGDV 041859Z 0419/0518 04014KT P6SM BKN020 OVC030
     FM050000 02009KT P6SM SCT025 BKN050
     FM050600 01013KT P6SM VCSH OVC040 PROB30 0508/0512 P6SM -TSRA
      OVC030CB
     FM051400 04014KT P6SM OVC008
      AMD LTD TO CLD VIS AND WIND=

USA.gov is the U.S. government's official web portal to all federal, state and local government web resources and services.